createdAt,value
2023-05-02T00:01:15.847Z,100731.44
2023-05-02T00:03:45.758Z,100731.06
2023-05-02T00:06:16.040Z,100726.00
2023-05-02T00:08:46.061Z,100728.94
2023-05-02T00:11:14.580Z,100726.28
2023-05-02T00:13:44.204Z,100721.38
2023-05-02T00:16:11.506Z,100727.09
2023-05-02T00:18:39.909Z,100723.94
2023-05-02T00:21:08.659Z,100718.53
2023-05-02T00:23:36.952Z,100723.41
2023-05-02T00:26:10.509Z,100719.13
2023-05-02T00:28:40.498Z,100721.22
2023-05-02T00:31:08.577Z,100725.28
2023-05-02T00:33:36.875Z,100721.00
2023-05-02T00:36:05.591Z,100721.75
2023-05-02T00:38:33.822Z,100718.13
2023-05-02T00:41:02.170Z,100720.81
2023-05-02T00:43:31.658Z,100725.16
2023-05-02T00:46:01.032Z,100715.66
2023-05-02T00:48:31.247Z,100719.97
2023-05-02T00:51:05.630Z,100722.84
2023-05-02T00:53:35.846Z,100717.44
2023-05-02T00:56:06.572Z,100716.44
2023-05-02T00:58:40.994Z,100717.38
2023-05-02T01:02:00.816Z,100723.00
2023-05-02T01:05:11.379Z,100719.84
2023-05-02T01:08:10.951Z,100718.03
2023-05-02T01:11:35.401Z,100728.59
2023-05-02T01:14:12.470Z,100729.50
2023-05-02T01:16:48.685Z,100728.47
2023-05-02T01:19:53.004Z,100733.19
2023-05-02T01:22:30.545Z,100727.34
2023-05-02T01:26:07.677Z,100733.91
2023-05-02T01:29:03.549Z,100731.84
2023-05-02T01:31:43.720Z,100731.72
2023-05-02T01:34:12.897Z,100737.97
2023-05-02T01:36:50.564Z,100739.16
2023-05-02T01:39:26.988Z,100740.69
2023-05-02T01:42:03.938Z,100743.03
2023-05-02T01:44:38.427Z,100752.03
2023-05-02T01:47:11.447Z,100760.75
2023-05-02T01:49:45.168Z,100758.69
2023-05-02T01:52:21.905Z,100756.28
2023-05-02T01:54:57.930Z,100756.69
2023-05-02T01:57:28.290Z,100755.94
2023-05-02T02:00:04.193Z,100762.53
2023-05-02T02:02:36.988Z,100761.78
2023-05-02T02:05:12.322Z,100758.56
2023-05-02T02:07:44.802Z,100759.41
2023-05-02T02:10:15.391Z,100756.19
2023-05-02T02:13:19.817Z,100761.41
2023-05-02T02:15:59.803Z,100764.41
2023-05-02T02:18:37.857Z,100767.69
2023-05-02T02:21:13.531Z,100772.94
2023-05-02T02:23:51.553Z,100780.84
2023-05-02T02:26:23.899Z,100783.44
2023-05-02T02:28:55.205Z,100791.44
2023-05-02T02:31:40.030Z,100784.00
2023-05-02T02:34:11.317Z,100794.91
2023-05-02T02:37:01.880Z,100799.91
2023-05-02T02:40:16.727Z,100799.50
2023-05-02T02:43:00.423Z,100805.91
2023-05-02T02:46:23.032Z,100804.88
2023-05-02T02:49:27.293Z,100811.66
2023-05-02T02:52:38.324Z,100814.22
2023-05-02T02:55:43.082Z,100813.19
2023-05-02T02:59:03.514Z,100822.94
2023-05-02T03:01:42.040Z,100825.03
2023-05-02T03:04:16.795Z,100837.38
2023-05-02T03:06:46.908Z,100841.41
2023-05-02T03:09:18.905Z,100861.09
2023-05-02T03:11:49.045Z,100860.66
2023-05-02T03:14:19.173Z,100862.56
2023-05-02T03:16:51.969Z,100880.84
2023-05-02T03:19:22.098Z,100880.56
2023-05-02T03:21:52.190Z,100877.47
2023-05-02T03:24:22.442Z,100879.22
2023-05-02T03:26:59.539Z,100879.81
2023-05-02T03:29:29.661Z,100879.81
2023-05-02T03:31:59.890Z,100885.50
2023-05-02T03:34:30.167Z,100890.00
2023-05-02T03:37:00.359Z,100883.63
2023-05-02T03:39:30.476Z,100890.31
2023-05-02T03:42:01.884Z,100885.78
2023-05-02T03:44:32.036Z,100888.56
2023-05-02T03:47:03.293Z,100894.19
2023-05-02T03:49:37.030Z,100893.88
2023-05-02T03:52:07.265Z,100897.44
2023-05-02T03:54:38.020Z,100901.03
2023-05-02T03:57:08.989Z,100913.84
2023-05-02T03:59:41.839Z,100917.66
2023-05-02T04:02:12.572Z,100921.75
2023-05-02T04:04:43.717Z,100921.84
2023-05-02T04:07:18.549Z,100933.03
2023-05-02T04:09:48.657Z,100937.63
2023-05-02T04:12:18.914Z,100936.44
2023-05-02T04:14:49.054Z,100943.78
2023-05-02T04:17:19.200Z,100949.03
2023-05-02T04:19:49.528Z,100947.06
2023-05-02T04:22:19.654Z,100949.22
2023-05-02T04:24:49.790Z,100944.38
2023-05-02T04:27:20.002Z,100948.47
2023-05-02T04:29:52.681Z,100953.41
2023-05-02T04:32:22.986Z,100960.97
2023-05-02T04:34:53.176Z,100958.69
2023-05-02T04:37:23.567Z,100960.22
2023-05-02T04:39:53.686Z,100973.75
2023-05-02T04:42:22.121Z,100971.53
2023-05-02T04:44:50.848Z,100981.00
2023-05-02T04:47:18.917Z,100983.00
2023-05-02T04:49:47.385Z,100995.03
2023-05-02T04:52:15.845Z,100985.75
2023-05-02T04:54:44.439Z,100992.50
2023-05-02T04:57:12.642Z,101000.41
2023-05-02T04:59:41.055Z,101006.47
2023-05-02T05:02:12.902Z,101009.13
2023-05-02T05:04:40.967Z,101015.81
2023-05-02T05:07:09.344Z,101025.19
2023-05-02T05:09:37.767Z,101028.81
2023-05-02T05:12:10.550Z,101026.34
2023-05-02T05:14:41.486Z,101025.91
2023-05-02T05:17:11.646Z,101030.22
2023-05-02T05:19:41.829Z,101033.19
2023-05-02T05:22:11.973Z,101032.00
2023-05-02T05:24:42.059Z,101039.06
2023-05-02T05:27:12.492Z,101046.91
2023-05-02T05:29:42.623Z,101049.75
2023-05-02T05:32:13.066Z,101064.63
2023-05-02T05:34:43.299Z,101065.31
2023-05-02T05:37:13.549Z,101063.34
2023-05-02T05:39:43.659Z,101065.81
2023-05-02T05:42:18.407Z,101064.25
2023-05-02T05:44:48.540Z,101078.75
2023-05-02T05:47:22.438Z,101078.03
2023-05-02T05:49:57.200Z,101080.31
2023-05-02T05:52:27.799Z,101077.00
2023-05-02T05:54:57.967Z,101078.47
2023-05-02T05:57:28.063Z,101083.56
2023-05-02T05:59:58.259Z,101091.53
2023-05-02T06:02:28.647Z,101091.97
2023-05-02T06:04:58.985Z,101100.34
2023-05-02T06:07:29.354Z,101107.94
2023-05-02T06:09:59.589Z,101110.72
2023-05-02T06:12:31.291Z,101117.00
2023-05-02T06:15:01.976Z,101119.56
2023-05-02T06:17:32.611Z,101127.38
2023-05-02T06:20:03.031Z,101139.00
2023-05-02T06:22:33.367Z,101141.16
2023-05-02T06:25:05.363Z,101144.34
2023-05-02T06:27:36.084Z,101143.75
2023-05-02T06:30:07.740Z,101153.56
2023-05-02T06:32:35.350Z,101146.50
2023-05-02T06:35:05.735Z,101155.72
2023-05-02T06:37:36.091Z,101157.41
2023-05-02T06:40:06.670Z,101160.34
2023-05-02T06:42:36.163Z,101165.75
2023-05-02T06:45:07.164Z,101174.00
2023-05-02T06:47:36.501Z,101171.25
2023-05-02T06:50:07.675Z,101178.75
2023-05-02T06:52:36.353Z,101182.31
2023-05-02T06:55:07.070Z,101189.59
2023-05-02T06:57:36.781Z,101205.09
2023-05-02T07:00:07.550Z,101212.59
2023-05-02T07:02:36.836Z,101206.13
2023-05-02T07:05:07.222Z,101211.03
2023-05-02T07:07:37.133Z,101221.28
2023-05-02T07:10:07.660Z,101227.19
2023-05-02T07:12:37.635Z,101221.59
2023-05-02T07:15:08.807Z,101244.16
2023-05-02T07:17:37.320Z,101248.84
2023-05-02T07:20:09.307Z,101235.94
2023-05-02T07:22:37.795Z,101247.63
2023-05-02T07:25:07.958Z,101247.03
2023-05-02T07:27:37.567Z,101253.06
2023-05-02T07:30:08.629Z,101260.13
2023-05-02T07:32:38.716Z,101257.13
2023-05-02T07:35:09.711Z,101260.75
2023-05-02T07:37:39.054Z,101263.84
2023-05-02T07:40:08.170Z,101265.19
2023-05-02T07:42:37.456Z,101258.84
2023-05-02T07:45:09.098Z,101274.97
2023-05-02T07:47:38.103Z,101283.69
2023-05-02T07:50:09.491Z,101281.59
2023-05-02T07:52:38.689Z,101276.34
2023-05-02T07:55:09.214Z,101284.09
2023-05-02T07:57:38.967Z,101287.75
2023-05-02T08:00:10.404Z,101284.47
2023-05-02T08:02:39.663Z,101286.81
2023-05-02T08:05:10.130Z,101273.66
2023-05-02T08:07:38.068Z,101286.44
2023-05-02T08:10:08.827Z,101289.38
2023-05-02T08:12:42.717Z,101295.00
2023-05-02T08:15:14.015Z,101298.47
2023-05-02T08:17:42.005Z,101304.03
2023-05-02T08:20:12.640Z,101295.00
2023-05-02T08:22:42.485Z,101305.69
2023-05-02T08:25:12.210Z,101306.94
2023-05-02T08:27:41.879Z,101313.34
2023-05-02T08:30:13.207Z,101307.69
2023-05-02T08:32:42.525Z,101313.75
2023-05-02T08:35:12.586Z,101319.13
2023-05-02T08:37:42.870Z,101313.16
2023-05-02T08:40:15.219Z,101316.50
2023-05-02T08:42:45.500Z,101315.06
2023-05-02T08:45:16.858Z,101322.53
2023-05-02T08:47:47.946Z,101329.38
2023-05-02T08:50:20.011Z,101326.31
2023-05-02T08:52:53.472Z,101328.75
2023-05-02T08:55:27.923Z,101336.03
2023-05-02T08:57:58.855Z,101342.44
2023-05-02T09:00:29.320Z,101344.94
2023-05-02T09:03:32.828Z,101344.47
2023-05-02T09:06:22.883Z,101355.94
2023-05-02T09:08:53.622Z,101368.53
2023-05-02T09:11:23.706Z,101365.50
2023-05-02T09:13:53.864Z,101369.63
2023-05-02T09:16:27.457Z,101368.00
2023-05-02T09:18:59.490Z,101374.63
2023-05-02T09:21:41.441Z,101376.94
2023-05-02T09:24:23.082Z,101388.22
2023-05-02T09:27:08.256Z,101388.53
2023-05-02T09:29:39.167Z,101390.91
2023-05-02T09:32:09.794Z,101382.63
2023-05-02T09:34:39.954Z,101384.59
2023-05-02T09:37:12.760Z,101386.06
2023-05-02T09:40:10.306Z,101393.28
2023-05-02T09:42:40.442Z,101391.03
2023-05-02T09:45:25.532Z,101391.13
2023-05-02T09:48:02.952Z,101388.22
2023-05-02T09:50:38.522Z,101397.31
2023-05-02T09:53:11.427Z,101403.06
2023-05-02T09:55:41.579Z,101397.25
2023-05-02T09:58:25.784Z,101405.41
2023-05-02T10:00:56.088Z,101411.06
2023-05-02T10:03:29.872Z,101418.75
2023-05-02T10:06:01.490Z,101417.78
2023-05-02T10:08:34.601Z,101415.09
2023-05-02T10:11:10.103Z,101422.28
2023-05-02T10:13:43.923Z,101429.84
2023-05-02T10:16:29.275Z,101434.41
2023-05-02T10:19:10.650Z,101427.69
2023-05-02T10:21:44.315Z,101434.09
2023-05-02T10:24:17.213Z,101439.84
2023-05-02T10:26:50.083Z,101443.88
2023-05-02T10:29:20.269Z,101439.66
2023-05-02T10:31:52.121Z,101449.16
2023-05-02T10:34:24.024Z,101449.41
2023-05-02T10:36:56.761Z,101442.34
2023-05-02T10:39:29.491Z,101450.44
2023-05-02T10:42:05.296Z,101457.59
2023-05-02T10:44:40.650Z,101473.63
2023-05-02T10:47:27.664Z,101471.53
2023-05-02T10:50:04.983Z,101476.28
2023-05-02T10:52:41.347Z,101479.91
2023-05-02T10:55:23.842Z,101486.75
2023-05-02T10:58:02.615Z,101489.75
2023-05-02T11:00:35.017Z,101489.16
2023-05-02T11:03:05.462Z,101504.50
2023-05-02T11:06:09.980Z,101509.69
2023-05-02T11:08:41.912Z,101508.94
2023-05-02T11:11:43.798Z,101513.97
2023-05-02T11:14:38.620Z,101518.94
2023-05-02T11:17:11.826Z,101531.50
2023-05-02T11:19:44.885Z,101534.31
2023-05-02T11:22:21.104Z,101534.84
2023-05-02T11:24:51.894Z,101538.78
2023-05-02T11:27:35.831Z,101550.28
2023-05-02T11:30:10.033Z,101553.22
2023-05-02T11:32:49.825Z,101561.66
2023-05-02T11:35:28.288Z,101563.31
2023-05-02T11:38:10.138Z,101570.13
2023-05-02T11:40:41.337Z,101578.53
2023-05-02T11:43:18.668Z,101576.69
2023-05-02T11:45:49.696Z,101574.72
2023-05-02T11:48:22.839Z,101572.78
2023-05-02T11:51:05.575Z,101573.19
2023-05-02T11:53:41.776Z,101580.97
2023-05-02T11:56:12.135Z,101587.63
2023-05-02T11:58:44.211Z,101575.25
2023-05-02T12:01:17.516Z,101587.50
2023-05-02T12:03:49.682Z,101581.19
2023-05-02T12:06:20.469Z,101598.00
2023-05-02T12:08:53.635Z,101605.41
2023-05-02T12:11:25.005Z,101599.97
2023-05-02T12:13:55.645Z,101599.91
2023-05-02T12:16:26.110Z,101606.50
2023-05-02T12:18:59.687Z,101606.28
2023-05-02T12:21:32.943Z,101602.81
2023-05-02T12:24:04.210Z,101602.09
2023-05-02T12:26:34.485Z,101616.03
2023-05-02T12:29:07.832Z,101616.53
2023-05-02T12:31:38.119Z,101620.03
2023-05-02T12:34:08.292Z,101625.81
2023-05-02T12:36:45.614Z,101622.56
2023-05-02T12:39:16.510Z,101621.44
2023-05-02T12:41:47.485Z,101612.44
2023-05-02T12:44:36.528Z,101617.41
2023-05-02T12:47:06.308Z,101620.47
2023-05-02T12:49:52.785Z,101621.06
2023-05-02T12:52:59.395Z,101621.72
2023-05-02T12:55:32.431Z,101624.50
2023-05-02T12:58:13.636Z,101624.81
2023-05-02T13:00:45.744Z,101632.31
2023-05-02T13:03:18.000Z,101629.34
2023-05-02T13:05:48.159Z,101635.84
2023-05-02T13:08:18.293Z,101632.25
2023-05-02T13:10:48.377Z,101633.84
2023-05-02T13:13:18.508Z,101642.53
2023-05-02T13:15:48.881Z,101643.72
2023-05-02T13:18:19.128Z,101648.50
2023-05-02T13:20:49.402Z,101641.38
2023-05-02T13:23:19.645Z,101655.53
2023-05-02T13:25:49.800Z,101652.22
2023-05-02T13:28:19.910Z,101651.97
2023-05-02T13:30:50.062Z,101659.97
2023-05-02T13:33:20.182Z,101656.41
2023-05-02T13:35:50.281Z,101651.72
2023-05-02T13:38:20.551Z,101659.25
2023-05-02T13:40:50.917Z,101660.59
2023-05-02T13:43:21.249Z,101661.63
2023-05-02T13:45:52.549Z,101660.19
2023-05-02T13:48:22.960Z,101659.66
2023-05-02T13:50:53.110Z,101672.44
2023-05-02T13:53:23.234Z,101661.94
2023-05-02T13:55:53.347Z,101667.72
2023-05-02T13:58:23.535Z,101680.00
2023-05-02T14:00:53.666Z,101668.34
2023-05-02T14:03:23.969Z,101676.91
2023-05-02T14:05:54.126Z,101687.72
2023-05-02T14:08:24.295Z,101687.50
2023-05-02T14:10:54.396Z,101690.00
2023-05-02T14:13:24.883Z,101688.38
2023-05-02T14:15:55.498Z,101687.91
2023-05-02T14:18:23.498Z,101686.59
2023-05-02T14:20:51.943Z,101689.06
2023-05-02T14:23:20.909Z,101702.91
2023-05-02T14:25:48.736Z,101696.50
2023-05-02T14:28:17.110Z,101705.22
2023-05-02T14:30:45.699Z,101707.13
2023-05-02T14:33:14.232Z,101713.94
2023-05-02T14:35:42.914Z,101711.47
2023-05-02T14:38:10.878Z,101703.03
2023-05-02T14:40:39.315Z,101725.09
2023-05-02T14:43:08.522Z,101718.91
2023-05-02T14:45:36.111Z,101719.22
2023-05-02T14:48:04.737Z,101726.28
2023-05-02T14:50:32.953Z,101726.22
2023-05-02T14:53:01.386Z,101734.13
2023-05-02T14:55:29.891Z,101728.69
2023-05-02T14:57:58.723Z,101736.84
2023-05-02T15:00:26.667Z,101739.28
2023-05-02T15:02:55.274Z,101738.34
2023-05-02T15:05:23.544Z,101746.94
2023-05-02T15:07:51.965Z,101741.09
2023-05-02T15:10:20.510Z,101741.63
2023-05-02T15:12:51.040Z,101752.94
2023-05-02T15:15:25.273Z,101750.69
2023-05-02T15:17:55.551Z,101752.00
2023-05-02T15:20:25.958Z,101752.94
2023-05-02T15:22:56.169Z,101763.66
2023-05-02T15:25:26.395Z,101753.69
2023-05-02T15:27:56.722Z,101752.81
2023-05-02T15:30:27.163Z,101765.09
2023-05-02T15:32:57.372Z,101767.09
2023-05-02T15:35:27.573Z,101768.53
2023-05-02T15:37:58.010Z,101770.94
2023-05-02T15:40:28.619Z,101780.81
2023-05-02T15:42:58.866Z,101786.75
2023-05-02T15:45:29.020Z,101792.47
2023-05-02T15:47:59.169Z,101787.97
2023-05-02T15:50:29.303Z,101788.63
2023-05-02T15:52:59.464Z,101788.94
2023-05-02T15:55:30.763Z,101793.91
2023-05-02T15:58:00.979Z,101785.25
2023-05-02T16:00:31.293Z,101788.09
2023-05-02T16:03:03.927Z,101794.25
2023-05-02T16:05:34.458Z,101799.81
2023-05-02T16:08:06.201Z,101793.44
2023-05-02T16:10:39.270Z,101789.16
2023-05-02T16:13:10.205Z,101799.56
2023-05-02T16:15:40.517Z,101796.91
2023-05-02T16:18:10.831Z,101789.41
2023-05-02T16:20:42.263Z,101790.78
2023-05-02T16:23:12.392Z,101796.22
2023-05-02T16:25:42.525Z,101797.03
2023-05-02T16:28:12.705Z,101797.25
2023-05-02T16:30:42.805Z,101793.44
2023-05-02T16:33:13.926Z,101799.13
2023-05-02T16:35:44.052Z,101791.06
2023-05-02T16:38:14.281Z,101802.81
2023-05-02T16:40:44.488Z,101797.16
2023-05-02T16:43:14.645Z,101792.59
2023-05-02T16:45:47.112Z,101795.78
2023-05-02T16:48:17.315Z,101795.16
2023-05-02T16:50:47.450Z,101795.38
2023-05-02T16:53:17.568Z,101792.38
2023-05-02T16:55:47.696Z,101799.44
2023-05-02T16:58:17.824Z,101799.94
2023-05-02T17:00:48.084Z,101805.31
2023-05-02T17:03:18.367Z,101799.78
2023-05-02T17:05:48.553Z,101806.00
2023-05-02T17:08:18.661Z,101799.94
2023-05-02T17:10:51.560Z,101806.16
2023-05-02T17:13:21.879Z,101813.63
2023-05-02T17:15:53.786Z,101808.97
2023-05-02T17:18:24.485Z,101819.59
2023-05-02T17:20:55.360Z,101814.03
2023-05-02T17:23:28.726Z,101817.06
2023-05-02T17:25:58.967Z,101813.59
2023-05-02T17:28:29.182Z,101814.00
2023-05-02T17:30:59.576Z,101823.09
2023-05-02T17:33:29.905Z,101821.22
2023-05-02T17:36:00.067Z,101831.28
2023-05-02T17:38:30.509Z,101826.38
2023-05-02T17:41:00.623Z,101828.88
2023-05-02T17:43:30.794Z,101835.69
2023-05-02T17:46:10.242Z,101836.59
2023-05-02T17:48:44.503Z,101830.50
2023-05-02T17:51:14.653Z,101834.09
2023-05-02T17:53:44.305Z,101833.66
2023-05-02T17:56:16.409Z,101838.75
2023-05-02T17:58:46.276Z,101835.19
2023-05-02T18:01:17.775Z,101848.03
2023-05-02T18:03:48.321Z,101841.16
2023-05-02T18:06:19.151Z,101844.81
2023-05-02T18:08:49.369Z,101847.41
2023-05-02T18:11:21.260Z,101852.69
2023-05-02T18:13:51.616Z,101856.97
2023-05-02T18:16:22.050Z,101848.66
2023-05-02T18:18:51.811Z,101854.50
2023-05-02T18:21:28.195Z,101857.88
2023-05-02T18:23:57.039Z,101857.88
2023-05-02T18:26:25.911Z,101857.34
2023-05-02T18:28:55.857Z,101862.63
2023-05-02T18:31:24.365Z,101866.19
2023-05-02T18:33:54.886Z,101861.34
2023-05-02T18:36:28.954Z,101860.00
2023-05-02T18:39:00.412Z,101867.25
2023-05-02T18:41:29.641Z,101869.19
2023-05-02T18:43:58.645Z,101870.09
2023-05-02T18:46:30.363Z,101866.50
2023-05-02T18:49:00.486Z,101866.78
2023-05-02T18:51:30.494Z,101865.09
2023-05-02T18:54:00.501Z,101872.63
2023-05-02T18:56:30.434Z,101875.69
2023-05-02T18:59:00.308Z,101883.19
2023-05-02T19:01:30.354Z,101880.97
2023-05-02T19:04:01.123Z,101886.56
2023-05-02T19:06:31.686Z,101883.81
2023-05-02T19:09:02.022Z,101889.13
2023-05-02T19:11:32.183Z,101889.69
2023-05-02T19:14:03.739Z,101893.31
2023-05-02T19:16:36.170Z,101889.19
2023-05-02T19:19:06.069Z,101901.47
2023-05-02T19:21:35.480Z,101897.97
2023-05-02T19:24:05.714Z,101906.44
2023-05-02T19:26:35.850Z,101913.06
2023-05-02T19:29:05.915Z,101907.44
2023-05-02T19:31:35.818Z,101914.41
2023-05-02T19:34:06.160Z,101921.78
2023-05-02T19:36:36.316Z,101922.38
2023-05-02T19:39:05.973Z,101926.31
2023-05-02T19:41:36.502Z,101925.22
2023-05-02T19:44:06.137Z,101931.66
2023-05-02T19:46:36.334Z,101937.72
2023-05-02T19:49:06.287Z,101925.56
2023-05-02T19:51:36.160Z,101936.38
2023-05-02T19:54:06.135Z,101937.19
2023-05-02T19:56:36.370Z,101938.91
2023-05-02T19:59:06.702Z,101942.84
2023-05-02T20:01:36.102Z,101944.78
2023-05-02T20:04:06.075Z,101953.94
2023-05-02T20:06:36.599Z,101956.97
2023-05-02T20:09:06.519Z,101956.91
2023-05-02T20:11:36.282Z,101952.53
2023-05-02T20:14:06.177Z,101952.84
2023-05-02T20:16:36.097Z,101953.16
2023-05-02T20:19:06.195Z,101955.09
2023-05-02T20:21:36.258Z,101963.69
2023-05-02T20:24:07.180Z,101964.53
2023-05-02T20:26:37.510Z,101973.13
2023-05-02T20:29:09.994Z,101970.13
2023-05-02T20:31:38.102Z,101977.25
2023-05-02T20:34:08.206Z,101972.03
2023-05-02T20:36:36.858Z,101973.47
2023-05-02T20:39:07.574Z,101978.66
2023-05-02T20:41:36.866Z,101975.91
2023-05-02T20:44:04.981Z,101987.88
2023-05-02T20:46:33.375Z,101981.25
2023-05-02T20:49:02.397Z,101987.00
2023-05-02T20:51:30.435Z,101993.41
2023-05-02T20:53:59.455Z,101996.97
2023-05-02T20:56:27.087Z,101993.13
2023-05-02T20:58:56.809Z,101993.94
2023-05-02T21:01:27.109Z,101994.81
2023-05-02T21:03:57.482Z,102004.47
2023-05-02T21:06:27.771Z,102003.38
2023-05-02T21:08:58.553Z,102001.50
2023-05-02T21:11:29.918Z,102004.22
2023-05-02T21:13:59.838Z,102007.53
2023-05-02T21:16:29.683Z,102003.13
2023-05-02T21:18:59.554Z,102010.09
2023-05-02T21:21:29.288Z,102010.94
2023-05-02T21:23:59.088Z,102011.19
2023-05-02T21:26:29.261Z,102013.41
2023-05-02T21:28:59.153Z,102014.53
2023-05-02T21:31:29.602Z,102018.16
2023-05-02T21:34:00.847Z,102013.72
2023-05-02T21:36:30.054Z,102013.75
2023-05-02T21:38:59.838Z,102017.56
2023-05-02T21:41:29.808Z,102021.47
2023-05-02T21:43:59.427Z,102012.88
2023-05-02T21:46:29.251Z,102014.00
2023-05-02T21:48:59.161Z,102012.88
2023-05-02T21:51:28.954Z,102026.47
2023-05-02T21:53:58.778Z,102024.22
2023-05-02T21:56:28.533Z,102018.16
2023-05-02T21:58:58.375Z,102014.81
2023-05-02T22:01:28.215Z,102021.19
2023-05-02T22:03:58.239Z,102025.91
2023-05-02T22:06:28.726Z,102020.38
2023-05-02T22:08:56.753Z,102025.31
2023-05-02T22:11:25.702Z,102031.13
2023-05-02T22:13:53.842Z,102028.91
2023-05-02T22:16:22.172Z,102028.38
2023-05-02T22:18:50.709Z,102030.03
2023-05-02T22:21:19.040Z,102038.03
2023-05-02T22:23:47.299Z,102038.59
2023-05-02T22:26:15.872Z,102038.28
2023-05-02T22:28:44.283Z,102043.53
2023-05-02T22:31:12.666Z,102047.41
2023-05-02T22:33:42.900Z,102051.00
2023-05-02T22:36:12.869Z,102054.84
2023-05-02T22:38:40.976Z,102051.22
2023-05-02T22:41:10.069Z,102048.19
2023-05-02T22:43:37.791Z,102055.41
2023-05-02T22:46:06.284Z,102057.59
2023-05-02T22:48:34.670Z,102061.75
2023-05-02T22:51:03.220Z,102062.88
2023-05-02T22:53:31.524Z,102056.22
2023-05-02T22:56:01.554Z,102063.94
2023-05-02T22:58:31.309Z,102062.81
2023-05-02T23:01:02.232Z,102070.56
2023-05-02T23:03:32.162Z,102076.63
2023-05-02T23:06:02.269Z,102077.50
2023-05-02T23:08:31.971Z,102071.41
2023-05-02T23:11:01.679Z,102077.75
2023-05-02T23:13:31.769Z,102081.34
2023-05-02T23:16:01.590Z,102080.78
2023-05-02T23:18:31.907Z,102073.31
2023-05-02T23:21:01.534Z,102076.91
2023-05-02T23:23:31.964Z,102079.66
2023-05-02T23:26:01.522Z,102082.69
2023-05-02T23:28:31.423Z,102081.28
2023-05-02T23:31:02.938Z,102075.78
2023-05-02T23:33:32.913Z,102076.84
2023-05-02T23:36:04.087Z,102078.50
2023-05-02T23:38:36.302Z,102077.94
2023-05-02T23:41:05.900Z,102086.47
2023-05-02T23:43:36.039Z,102088.66
2023-05-02T23:46:06.477Z,102081.75
2023-05-02T23:48:36.550Z,102085.91
2023-05-02T23:51:06.435Z,102080.69
2023-05-02T23:53:36.178Z,102082.31
2023-05-02T23:56:06.964Z,102076.78
2023-05-02T23:58:36.933Z,102080.38
